createdAt,value
2019-02-19T00:03:09.092Z,9
2019-02-19T00:08:14.348Z,7.5
2019-02-19T00:13:19.936Z,8.1
2019-02-19T00:18:26.245Z,8.6
2019-02-19T00:23:31.272Z,7.4
2019-02-19T00:28:36.425Z,8.2
2019-02-19T00:33:41.685Z,7.4
2019-02-19T00:38:46.925Z,7.8
2019-02-19T00:43:52.051Z,7.7
2019-02-19T00:48:57.361Z,8.3
2019-02-19T00:54:02.410Z,8.3
2019-02-19T00:59:07.673Z,8.6
2019-02-19T01:04:13.110Z,7.5
2019-02-19T01:09:18.348Z,6.9
2019-02-19T01:14:24.053Z,7.5
2019-02-19T01:19:29.194Z,7.5
2019-02-19T01:24:34.359Z,7.1
2019-02-19T01:29:39.944Z,7.8
2019-02-19T01:34:45.097Z,8.2
2019-02-19T01:39:50.275Z,8.3
2019-02-19T01:44:55.371Z,7.1
2019-02-19T01:50:00.779Z,8.3
2019-02-19T01:55:06.356Z,8.3
2019-02-19T02:00:10.629Z,7.7
2019-02-19T02:05:16.455Z,8
2019-02-19T02:10:22.567Z,7.7
2019-02-19T02:15:27.788Z,9.6
2019-02-19T02:20:33.640Z,8.1
2019-02-19T02:25:38.791Z,7.8
2019-02-19T02:30:44.660Z,7.7
2019-02-19T02:35:50.758Z,8.6
2019-02-19T02:40:56.727Z,7.7
2019-02-19T02:46:02.706Z,7.6
2019-02-19T02:51:08.728Z,7.9
2019-02-19T02:56:14.362Z,7
2019-02-19T03:01:19.984Z,7.4
2019-02-19T03:06:25.313Z,9.5
2019-02-19T03:11:31.083Z,7.5
2019-02-19T03:16:36.412Z,7.7
2019-02-19T03:21:41.979Z,8.5
2019-02-19T03:26:47.112Z,7.2
2019-02-19T03:31:53.312Z,7.7
2019-02-19T03:36:58.833Z,8.9
2019-02-19T03:42:04.682Z,8.5
2019-02-19T03:47:11.510Z,9.3
2019-02-19T03:52:15.842Z,7.3
2019-02-19T03:57:21.469Z,8.2
2019-02-19T04:02:27.215Z,7.8
2019-02-19T04:07:32.868Z,8.2
2019-02-19T04:12:38.827Z,8.4
2019-02-19T04:17:44.672Z,9.5
2019-02-19T04:22:50.249Z,9
2019-02-19T04:27:56.217Z,9.4
2019-02-19T04:33:01.685Z,9.1
2019-02-19T04:38:07.080Z,9.4
2019-02-19T04:43:11.453Z,8.1
2019-02-19T04:48:16.747Z,10.8
2019-02-19T04:53:21.007Z,12
2019-02-19T04:58:26.519Z,8.5
2019-02-19T05:03:32.120Z,9.8
2019-02-19T05:08:37.173Z,9.2
2019-02-19T05:13:42.400Z,8.7
2019-02-19T05:18:46.508Z,9.8
2019-02-19T05:23:52.011Z,11.9
2019-02-19T05:28:57.264Z,10.8
2019-02-19T05:34:02.905Z,12.8
2019-02-19T05:39:08.609Z,14.5
2019-02-19T05:44:14.050Z,10.9
2019-02-19T05:49:22.320Z,13.4
2019-02-19T05:54:28.352Z,12.9
2019-02-19T05:59:34.176Z,10.8
2019-02-19T06:04:39.299Z,15.4
2019-02-19T06:09:43.666Z,11.9
2019-02-19T06:14:47.761Z,13.2
2019-02-19T06:19:53.393Z,10.2
2019-02-19T06:24:58.699Z,10.1
2019-02-19T06:30:03.939Z,11.2
2019-02-19T06:35:09.044Z,10
2019-02-19T06:40:14.551Z,11.6
2019-02-19T06:45:19.664Z,12.3
2019-02-19T06:50:24.907Z,12.8
2019-02-19T06:55:30.535Z,14.3
2019-02-19T07:00:35.511Z,13
2019-02-19T07:05:39.591Z,13.5
2019-02-19T07:10:45.429Z,10.6
2019-02-19T07:15:50.552Z,10
2019-02-19T07:20:55.519Z,10.3
2019-02-19T07:26:01.104Z,9.5
2019-02-19T07:31:05.027Z,8.7
2019-02-19T07:36:08.729Z,8.5
2019-02-19T07:41:14.502Z,8.3
2019-02-19T07:46:20.254Z,9.2
2019-02-19T07:51:26.296Z,12.7
2019-02-19T07:56:31.803Z,15.1
2019-02-19T08:01:36.960Z,11.8
2019-02-19T08:06:42.249Z,10.9
2019-02-19T08:11:47.356Z,8.8
2019-02-19T08:16:53.037Z,9.6
2019-02-19T08:21:58.657Z,9.1
2019-02-19T08:27:04.470Z,9.3
2019-02-19T08:32:09.554Z,10.1
2019-02-19T08:37:14.792Z,7.4
2019-02-19T08:42:19.956Z,10.9
2019-02-19T08:47:24.933Z,8.2
2019-02-19T08:52:30.699Z,6.9
2019-02-19T08:57:35.841Z,6.4
2019-02-19T09:02:41.844Z,6.1
2019-02-19T09:07:46.310Z,6.3
2019-02-19T09:12:51.612Z,10.1
2019-02-19T09:17:56.672Z,13.4
2019-02-19T09:23:01.688Z,11.5
2019-02-19T09:28:07.241Z,10.8
2019-02-19T09:33:10.846Z,11.3
2019-02-19T09:38:16.543Z,14.1
2019-02-19T09:43:20.888Z,11.4
2019-02-19T09:48:26.265Z,10.2
2019-02-19T09:53:31.870Z,13.1
2019-02-19T09:58:37.569Z,11.1
2019-02-19T10:03:41.580Z,13.9
2019-02-19T10:08:47.066Z,12
2019-02-19T10:13:53.014Z,12.2
2019-02-19T10:18:58.268Z,13.1
2019-02-19T10:24:04.081Z,51
2019-02-19T10:29:10.169Z,72.1
2019-02-19T10:34:16.076Z,61
2019-02-19T10:39:22.406Z,69.6
2019-02-19T10:44:26.062Z,63.9
2019-02-19T10:49:31.637Z,63.2
2019-02-19T10:54:37.452Z,61.2
2019-02-19T10:59:43.138Z,50.7
2019-02-19T11:04:47.581Z,51.6
2019-02-19T11:09:52.882Z,49.1
2019-02-19T11:14:58.151Z,46.9
2019-02-19T11:20:03.948Z,40.9
2019-02-19T11:25:09.817Z,45.6
2019-02-19T11:30:16.112Z,43.4
2019-02-19T11:35:23.446Z,41
2019-02-19T11:40:29.282Z,41.2
2019-02-19T11:45:30.092Z,37.6
2019-02-19T11:50:35.727Z,32.8
2019-02-19T11:55:41.134Z,34.1
2019-02-19T12:00:45.199Z,27.2
2019-02-19T12:05:51.062Z,29
2019-02-19T12:10:56.840Z,26.8
2019-02-19T12:16:02.617Z,25.6
2019-02-19T12:21:10.591Z,25.2
2019-02-19T12:26:16.785Z,25
2019-02-19T12:31:22.081Z,23.5
2019-02-19T12:36:27.353Z,22.3
2019-02-19T12:41:31.173Z,21.4
2019-02-19T12:46:36.220Z,21.7
2019-02-19T12:51:42.099Z,20.6
2019-02-19T12:56:47.893Z,19
2019-02-19T13:01:54.100Z,18.9
2019-02-19T13:07:00.120Z,19.6
2019-02-19T13:12:05.848Z,19.6
2019-02-19T13:17:11.881Z,19.9
2019-02-19T13:22:17.754Z,19
2019-02-19T13:27:23.401Z,19.8
2019-02-19T13:32:29.200Z,18.9
2019-02-19T13:37:34.644Z,17.4
2019-02-19T13:42:40.031Z,17.2
2019-02-19T13:47:45.768Z,16.8
2019-02-19T13:52:52.067Z,18.1
2019-02-19T13:57:58.036Z,16.7
2019-02-19T14:03:02.527Z,18.2
2019-02-19T14:08:14.155Z,17.8
2019-02-19T14:13:09.687Z,17.6
2019-02-19T14:18:15.904Z,18.3
2019-02-19T14:23:21.912Z,16.1
2019-02-19T14:28:27.209Z,15.8
2019-02-19T14:33:33.698Z,15.9
2019-02-19T14:38:38.197Z,15.4
2019-02-19T14:43:44.467Z,14.8
2019-02-19T14:48:50.308Z,16.6
2019-02-19T14:53:56.058Z,17.6
2019-02-19T14:59:01.713Z,28.3
2019-02-19T15:04:07.565Z,33.1
2019-02-19T15:09:13.315Z,33
2019-02-19T15:14:18.540Z,35.9
2019-02-19T15:19:23.648Z,36.4
2019-02-19T15:24:29.521Z,38.9
2019-02-19T15:29:33.003Z,45.4
2019-02-19T15:34:38.995Z,42.5
2019-02-19T15:39:44.382Z,46.7
2019-02-19T15:44:50.821Z,32
2019-02-19T15:49:56.203Z,23.5
2019-02-19T15:55:01.872Z,19.8
2019-02-19T16:00:07.850Z,13.7
2019-02-19T16:05:13.862Z,12.8
2019-02-19T16:10:19.913Z,12.4
2019-02-19T16:15:25.864Z,13.8
2019-02-19T16:20:31.532Z,14.8
2019-02-19T16:25:37.451Z,13.9
2019-02-19T16:30:42.665Z,15
2019-02-19T16:35:48.795Z,12.1
2019-02-19T16:40:54.473Z,12.6
2019-02-19T16:46:00.732Z,11.4
2019-02-19T16:51:05.852Z,13.8
2019-02-19T16:56:12.035Z,16.2
2019-02-19T17:01:17.589Z,15.6
2019-02-19T17:06:23.643Z,15.4
2019-02-19T17:11:29.357Z,13.6
2019-02-19T17:16:34.515Z,10.2
2019-02-19T17:21:38.941Z,10.2
2019-02-19T17:26:45.216Z,12
2019-02-19T17:31:49.341Z,9.1
2019-02-19T17:36:54.943Z,7.8
2019-02-19T17:41:59.801Z,9.1
2019-02-19T17:47:05.758Z,8.3
2019-02-19T17:52:11.872Z,8.6
2019-02-19T17:57:17.682Z,7.6
2019-02-19T18:02:23.028Z,11.1
2019-02-19T18:07:28.073Z,13.6
2019-02-19T18:12:33.028Z,12.2
2019-02-19T18:17:38.683Z,9.7
2019-02-19T18:22:44.381Z,9
2019-02-19T18:27:49.804Z,10
2019-02-19T18:32:55.645Z,10.8
2019-02-19T18:38:01.528Z,13.8
2019-02-19T18:43:07.333Z,15
2019-02-19T18:48:13.009Z,14.5
2019-02-19T18:53:18.471Z,136.6
2019-02-19T18:58:22.723Z,628.8
2019-02-19T19:03:26.531Z,378.5
2019-02-19T19:08:31.515Z,321.3
2019-02-19T19:13:38.247Z,291.4
2019-02-19T19:18:43.383Z,258
2019-02-19T19:23:48.792Z,241.3
2019-02-19T19:28:54.667Z,210.7
2019-02-19T19:34:00.123Z,193.6
2019-02-19T19:39:05.880Z,193.3
2019-02-19T19:44:11.805Z,184
2019-02-19T19:49:13.039Z,178.4
2019-02-19T19:54:18.441Z,175.1
2019-02-19T19:59:24.880Z,164.9
2019-02-19T20:04:30.277Z,162.4
2019-02-19T20:09:36.631Z,160.8
2019-02-19T20:14:42.188Z,152.1
2019-02-19T20:19:48.139Z,149.6
2019-02-19T20:24:54.176Z,116.7
2019-02-19T20:29:59.372Z,74.1
2019-02-19T20:35:05.914Z,54.5
2019-02-19T20:40:11.327Z,44.9
2019-02-19T20:45:16.916Z,35.5
2019-02-19T20:50:22.542Z,31.9
2019-02-19T20:55:36.677Z,25.2
2019-02-19T21:00:34.395Z,36.9
2019-02-19T21:05:39.237Z,42.5
2019-02-19T21:10:44.499Z,39.8
2019-02-19T21:15:49.523Z,40.7
2019-02-19T21:20:54.799Z,38.8
2019-02-19T21:26:00.007Z,36.2
2019-02-19T21:31:05.783Z,35.9
2019-02-19T21:36:11.541Z,37.1
2019-02-19T21:41:16.695Z,39
2019-02-19T21:46:22.105Z,35.3
2019-02-19T21:51:27.651Z,34.3
2019-02-19T21:56:32.639Z,28.7
2019-02-19T22:01:38.360Z,27.1
2019-02-19T22:06:43.394Z,25.8
2019-02-19T22:11:48.998Z,27.8
2019-02-19T22:16:54.084Z,21.6
2019-02-19T22:22:03.331Z,23.1
2019-02-19T22:27:09.794Z,21.2
2019-02-19T22:32:14.941Z,20.2
2019-02-19T22:37:20.094Z,20.6
2019-02-19T22:42:25.776Z,20
2019-02-19T22:47:31.531Z,19.3
2019-02-19T22:52:35.849Z,17.1
2019-02-19T22:57:41.516Z,16.6
2019-02-19T23:02:47.366Z,16.9
2019-02-19T23:07:53.820Z,16.7
2019-02-19T23:12:59.254Z,17.5
2019-02-19T23:18:04.319Z,16.4
2019-02-19T23:23:09.420Z,17.6
2019-02-19T23:28:14.360Z,14.6
2019-02-19T23:33:19.841Z,15.7
2019-02-19T23:38:26.064Z,16.3
2019-02-19T23:43:31.397Z,13.6
2019-02-19T23:48:36.410Z,14
2019-02-19T23:53:41.593Z,14.6
2019-02-19T23:58:47.555Z,14.4
